sensor_id;sensor_type;location;lat;lon;timestamp;pressure;altitude;pressure_sealevel;temperature;humidity
62122;BME280;48108;47.532;19.084;2023-03-21T04:46:54;100358.59;;;8.83;100.00
62122;BME280;48108;47.532;19.084;2023-03-21T04:49:58;100357.41;;;8.70;100.00
62122;BME280;48108;47.532;19.084;2023-03-21T04:53:01;100352.03;;;8.61;100.00
62122;BME280;48108;47.532;19.084;2023-03-21T04:56:05;100355.19;;;8.57;100.00
62122;BME280;48108;47.532;19.084;2023-03-21T04:59:11;100364.94;;;8.50;100.00
62122;BME280;48108;47.532;19.084;2023-03-21T05:02:15;100363.75;;;8.44;100.00
62122;BME280;48108;47.532;19.084;2023-03-21T05:05:18;100366.75;;;8.41;100.00
62122;BME280;48108;47.532;19.084;2023-03-21T05:08:21;100362.41;;;8.40;100.00
62122;BME280;48108;47.532;19.084;2023-03-21T05:11:24;100370.44;;;8.40;100.00
62122;BME280;48108;47.532;19.084;2023-03-21T05:14:27;100363.06;;;8.50;100.00
62122;BME280;48108;47.532;19.084;2023-03-21T05:17:30;100360.56;;;8.57;100.00
62122;BME280;48108;47.532;19.084;2023-03-21T05:20:33;100364.62;;;8.69;100.00
62122;BME280;48108;47.532;19.084;2023-03-21T05:23:38;100369.50;;;8.82;100.00
62122;BME280;48108;47.532;19.084;2023-03-21T05:26:42;100364.47;;;9.03;100.00
62122;BME280;48108;47.532;19.084;2023-03-21T05:29:46;100372.34;;;9.38;100.00
62122;BME280;48108;47.532;19.084;2023-03-21T05:32:50;100373.34;;;9.45;100.00
62122;BME280;48108;47.532;19.084;2023-03-21T05:35:53;100374.47;;;9.59;100.00
62122;BME280;48108;47.532;19.084;2023-03-21T05:38:58;100378.81;;;9.76;100.00
62122;BME280;48108;47.532;19.084;2023-03-21T05:42:01;100380.44;;;9.93;98.09
62122;BME280;48108;47.532;19.084;2023-03-21T05:45:05;100378.84;;;10.15;96.17
62122;BME280;48108;47.532;19.084;2023-03-21T05:48:09;100378.94;;;10.38;94.13
62122;BME280;48108;47.532;19.084;2023-03-21T05:51:17;100384.41;;;10.53;92.79
62122;BME280;48108;47.532;19.084;2023-03-21T05:54:20;100380.16;;;10.59;91.85
62122;BME280;48108;47.532;19.084;2023-03-21T05:57:24;100386.37;;;10.59;91.87
62122;BME280;48108;47.532;19.084;2023-03-21T06:00:30;100393.25;;;10.62;91.79
62122;BME280;48108;47.532;19.084;2023-03-21T06:03:35;100392.81;;;10.50;92.68
62122;BME280;48108;47.532;19.084;2023-03-21T06:06:39;100398.38;;;10.49;92.45
62122;BME280;48108;47.532;19.084;2023-03-21T06:09:43;100392.81;;;10.50;92.26
62122;BME280;48108;47.532;19.084;2023-03-21T06:12:45;100392.13;;;10.56;91.88
62122;BME280;48108;47.532;19.084;2023-03-21T06:15:52;100394.94;;;10.63;91.69
62122;BME280;48108;47.532;19.084;2023-03-21T06:18:56;100395.59;;;10.65;91.44
62122;BME280;48108;47.532;19.084;2023-03-21T06:22:00;100393.03;;;10.72;90.85
62122;BME280;48108;47.532;19.084;2023-03-21T06:25:04;100390.09;;;10.81;90.17
62122;BME280;48108;47.532;19.084;2023-03-21T06:28:09;100392.78;;;10.81;89.66
62122;BME280;48108;47.532;19.084;2023-03-21T06:31:13;100392.72;;;10.89;88.97
62122;BME280;48108;47.532;19.084;2023-03-21T06:34:17;100393.34;;;11.00;88.55
62122;BME280;48108;47.532;19.084;2023-03-21T06:37:20;100392.78;;;11.04;87.63
62122;BME280;48108;47.532;19.084;2023-03-21T06:40:23;100396.13;;;11.06;87.01
62122;BME280;48108;47.532;19.084;2023-03-21T06:43:27;100389.72;;;11.07;87.61
62122;BME280;48108;47.532;19.084;2023-03-21T06:46:30;100388.03;;;11.29;86.06
62122;BME280;48108;47.532;19.084;2023-03-21T06:49:33;100392.87;;;11.34;86.08
62122;BME280;48108;47.532;19.084;2023-03-21T06:52:36;100388.53;;;11.48;84.97
62122;BME280;48108;47.532;19.084;2023-03-21T06:55:40;100390.69;;;11.52;85.51
62122;BME280;48108;47.532;19.084;2023-03-21T06:58:44;100395.97;;;11.75;83.72
62122;BME280;48108;47.532;19.084;2023-03-21T07:01:48;100396.50;;;11.94;82.20
62122;BME280;48108;47.532;19.084;2023-03-21T07:04:54;100398.53;;;12.07;81.26
62122;BME280;48108;47.532;19.084;2023-03-21T07:07:57;100401.44;;;12.20;80.60
62122;BME280;48108;47.532;19.084;2023-03-21T07:11:04;100400.88;;;12.46;78.92
62122;BME280;48108;47.532;19.084;2023-03-21T07:14:07;100401.25;;;12.58;77.96
62122;BME280;48108;47.532;19.084;2023-03-21T07:17:10;100398.91;;;12.55;78.26
62122;BME280;48108;47.532;19.084;2023-03-21T07:20:13;100403.81;;;12.30;79.64
62122;BME280;48108;47.532;19.084;2023-03-21T07:23:18;100401.88;;;12.23;79.64
62122;BME280;48108;47.532;19.084;2023-03-21T07:26:20;100401.06;;;12.08;80.39
62122;BME280;48108;47.532;19.084;2023-03-21T07:29:24;100409.34;;;12.07;79.86
62122;BME280;48108;47.532;19.084;2023-03-21T07:32:27;100410.06;;;12.30;79.39
62122;BME280;48108;47.532;19.084;2023-03-21T07:35:31;100408.72;;;12.77;76.25
62122;BME280;48108;47.532;19.084;2023-03-21T07:38:34;100405.78;;;13.15;74.08
62122;BME280;48108;47.532;19.084;2023-03-21T07:41:37;100409.09;;;13.60;72.53
62122;BME280;48108;47.532;19.084;2023-03-21T07:44:43;100398.41;;;13.80;70.64
62122;BME280;48108;47.532;19.084;2023-03-21T07:47:47;100412.56;;;14.10;68.52
62122;BME280;48108;47.532;19.084;2023-03-21T07:50:50;100402.25;;;14.34;68.38
62122;BME280;48108;47.532;19.084;2023-03-21T07:53:53;100405.69;;;14.56;66.43
62122;BME280;48108;47.532;19.084;2023-03-21T07:56:56;100409.09;;;14.78;64.73
62122;BME280;48108;47.532;19.084;2023-03-21T07:59:59;100405.56;;;14.77;64.46
62122;BME280;48108;47.532;19.084;2023-03-21T08:03:02;100403.03;;;14.69;64.83
62122;BME280;48108;47.532;19.084;2023-03-21T08:06:05;100396.41;;;14.85;64.22
62122;BME280;48108;47.532;19.084;2023-03-21T08:09:08;100393.06;;;14.89;63.68
62122;BME280;48108;47.532;19.084;2023-03-21T08:12:11;100399.34;;;15.03;62.52
62122;BME280;48108;47.532;19.084;2023-03-21T08:15:14;100394.56;;;15.32;62.13
62122;BME280;48108;47.532;19.084;2023-03-21T08:18:17;100397.91;;;15.54;60.96
62122;BME280;48108;47.532;19.084;2023-03-21T08:21:20;100392.25;;;15.55;60.42
62122;BME280;48108;47.532;19.084;2023-03-21T08:24:22;100397.69;;;15.55;59.32
62122;BME280;48108;47.532;19.084;2023-03-21T08:27:25;100393.50;;;15.66;58.67
62122;BME280;48108;47.532;19.084;2023-03-21T08:30:28;100391.22;;;15.70;58.30
62122;BME280;48108;47.532;19.084;2023-03-21T08:33:31;100385.53;;;15.91;57.76
62122;BME280;48108;47.532;19.084;2023-03-21T08:36:35;100388.88;;;15.93;56.90
62122;BME280;48108;47.532;19.084;2023-03-21T08:39:38;100395.97;;;16.07;56.75
62122;BME280;48108;47.532;19.084;2023-03-21T08:42:42;100389.47;;;16.08;56.15
62122;BME280;48108;47.532;19.084;2023-03-21T08:45:45;100386.31;;;16.18;55.88
62122;BME280;48108;47.532;19.084;2023-03-21T08:48:48;100390.81;;;16.38;55.46
62122;BME280;48108;47.532;19.084;2023-03-21T08:51:54;100387.00;;;16.59;55.03
62122;BME280;48108;47.532;19.084;2023-03-21T08:54:58;100396.13;;;16.71;54.02
62122;BME280;48108;47.532;19.084;2023-03-21T08:58:00;100398.28;;;16.55;53.97
62122;BME280;48108;47.532;19.084;2023-03-21T09:01:04;100390.97;;;16.56;54.10
62122;BME280;48108;47.532;19.084;2023-03-21T09:04:08;100389.34;;;16.87;52.59
62122;BME280;48108;47.532;19.084;2023-03-21T09:07:12;100386.56;;;17.00;51.41
62122;BME280;48108;47.532;19.084;2023-03-21T09:10:18;100389.72;;;17.22;50.80
62122;BME280;48108;47.532;19.084;2023-03-21T09:13:24;100387.03;;;17.47;50.29
62122;BME280;48108;47.532;19.084;2023-03-21T09:16:27;100382.41;;;17.48;49.17
62122;BME280;48108;47.532;19.084;2023-03-21T09:19:30;100381.09;;;17.32;49.76
62122;BME280;48108;47.532;19.084;2023-03-21T09:22:33;100388.84;;;17.03;49.82
62122;BME280;48108;47.532;19.084;2023-03-21T09:25:36;100384.84;;;17.06;49.72
62122;BME280;48108;47.532;19.084;2023-03-21T09:28:40;100385.63;;;17.13;49.42
62122;BME280;48108;47.532;19.084;2023-03-21T09:31:44;100384.72;;;16.94;50.54
62122;BME280;48108;47.532;19.084;2023-03-21T09:34:48;100378.34;;;17.07;48.95
62122;BME280;48108;47.532;19.084;2023-03-21T09:37:53;100383.72;;;16.88;49.58
62122;BME280;48108;47.532;19.084;2023-03-21T09:47:31;100374.09;;;16.86;51.18
62122;BME280;48108;47.532;19.084;2023-03-21T09:50:42;100383.50;;;17.15;49.69
62122;BME280;48108;47.532;19.084;2023-03-21T09:53:48;100375.84;;;17.55;48.71
62122;BME280;48108;47.532;19.084;2023-03-21T09:56:54;100377.38;;;17.69;47.67
62122;BME280;48108;47.532;19.084;2023-03-21T10:00:03;100376.03;;;17.35;49.16
62122;BME280;48108;47.532;19.084;2023-03-21T10:03:21;100374.44;;;17.46;49.18
62122;BME280;48108;47.532;19.084;2023-03-21T10:06:28;100374.34;;;17.34;48.44
62122;BME280;48108;47.532;19.084;2023-03-21T10:09:32;100379.56;;;17.11;49.29
62122;BME280;48108;47.532;19.084;2023-03-21T10:12:36;100383.72;;;16.88;49.50
62122;BME280;48108;47.532;19.084;2023-03-21T10:15:39;100377.56;;;16.99;49.20
62122;BME280;48108;47.532;19.084;2023-03-21T10:18:43;100382.59;;;16.96;49.88
62122;BME280;48108;47.532;19.084;2023-03-21T10:21:49;100371.94;;;16.94;48.14
62122;BME280;48108;47.532;19.084;2023-03-21T10:25:14;100374.28;;;17.16;47.40
62122;BME280;48108;47.532;19.084;2023-03-21T10:28:21;100370.81;;;17.09;47.23
62122;BME280;48108;47.532;19.084;2023-03-21T10:31:27;100367.94;;;17.29;46.45
62122;BME280;48108;47.532;19.084;2023-03-21T10:34:55;100367.62;;;17.37;47.26
62122;BME280;48108;47.532;19.084;2023-03-21T10:38:04;100374.22;;;17.73;45.52
62122;BME280;48108;47.532;19.084;2023-03-21T10:41:09;100365.97;;;17.61;45.95
62122;BME280;48108;47.532;19.084;2023-03-21T10:44:16;100359.19;;;17.88;45.26
62122;BME280;48108;47.532;19.084;2023-03-21T10:47:25;100360.34;;;18.18;44.63
62122;BME280;48108;47.532;19.084;2023-03-21T10:50:29;100358.81;;;18.40;44.15
62122;BME280;48108;47.532;19.084;2023-03-21T10:53:37;100347.12;;;18.82;42.63
62122;BME280;48108;47.532;19.084;2023-03-21T10:56:54;100354.06;;;18.96;43.42
62122;BME280;48108;47.532;19.084;2023-03-21T11:00:00;100346.78;;;18.59;43.13
62122;BME280;48108;47.532;19.084;2023-03-21T11:03:06;100345.44;;;18.50;43.60
62122;BME280;48108;47.532;19.084;2023-03-21T11:06:22;100337.59;;;18.72;43.13
62122;BME280;48108;47.532;19.084;2023-03-21T11:09:42;100334.38;;;19.17;41.68
62122;BME280;48108;47.532;19.084;2023-03-21T11:12:47;100332.97;;;19.38;41.62
62122;BME280;48108;47.532;19.084;2023-03-21T11:15:53;100330.00;;;19.40;40.74
62122;BME280;48108;47.532;19.084;2023-03-21T11:19:00;100318.37;;;19.68;40.25
62122;BME280;48108;47.532;19.084;2023-03-21T11:22:06;100308.16;;;19.75;39.70
62122;BME280;48108;47.532;19.084;2023-03-21T11:25:35;100311.03;;;20.09;39.68
62122;BME280;48108;47.532;19.084;2023-03-21T11:28:40;100304.31;;;20.00;39.75
62122;BME280;48108;47.532;19.084;2023-03-21T11:31:43;100301.47;;;20.64;38.77
62122;BME280;48108;47.532;19.084;2023-03-21T11:34:50;100303.19;;;20.41;38.49
62122;BME280;48108;47.532;19.084;2023-03-21T11:37:55;100288.72;;;20.86;37.49
62122;BME280;48108;47.532;19.084;2023-03-21T11:41:01;100290.28;;;21.49;37.21
62122;BME280;48108;47.532;19.084;2023-03-21T11:44:04;100291.81;;;22.23;34.45
62122;BME280;48108;47.532;19.084;2023-03-21T11:47:09;100284.66;;;22.22;36.07
62122;BME280;48108;47.532;19.084;2023-03-21T11:53:33;100286.34;;;22.82;32.46
62122;BME280;48108;47.532;19.084;2023-03-21T11:56:46;100284.13;;;22.25;33.47
62122;BME280;48108;47.532;19.084;2023-03-21T12:00:06;100284.31;;;20.85;35.80
62122;BME280;48108;47.532;19.084;2023-03-21T12:10:43;100269.00;;;20.84;35.23
62122;BME280;48108;47.532;19.084;2023-03-21T12:17:29;100272.41;;;20.46;37.52
62122;BME280;48108;47.532;19.084;2023-03-21T12:24:09;100256.25;;;24.81;29.14
62122;BME280;48108;47.532;19.084;2023-03-21T12:37:19;100250.19;;;24.64;30.39
62122;BME280;48108;47.532;19.084;2023-03-21T12:40:49;100246.59;;;26.55;27.77
62122;BME280;48108;47.532;19.084;2023-03-21T12:44:16;100226.69;;;28.69;24.81
62122;BME280;48108;47.532;19.084;2023-03-21T12:47:24;100227.31;;;30.37;22.50
62122;BME280;48108;47.532;19.084;2023-03-21T12:50:33;100216.06;;;31.49;21.20
62122;BME280;48108;47.532;19.084;2023-03-21T12:53:56;100217.19;;;30.86;21.17
62122;BME280;48108;47.532;19.084;2023-03-21T13:00:26;100217.13;;;24.74;27.70
62122;BME280;48108;47.532;19.084;2023-03-21T13:03:40;100215.84;;;22.88;30.94
62122;BME280;48108;47.532;19.084;2023-03-21T13:06:47;100223.19;;;21.52;33.62
62122;BME280;48108;47.532;19.084;2023-03-21T13:09:54;100223.97;;;20.29;35.64
62122;BME280;48108;47.532;19.084;2023-03-21T13:19:51;100210.56;;;18.65;37.00
62122;BME280;48108;47.532;19.084;2023-03-21T13:22:56;100206.00;;;18.89;36.25
62122;BME280;48108;47.532;19.084;2023-03-21T13:26:01;100198.50;;;18.72;35.81
62122;BME280;48108;47.532;19.084;2023-03-21T13:32:31;100187.91;;;25.09;27.65
62122;BME280;48108;47.532;19.084;2023-03-21T13:35:39;100199.91;;;26.14;25.74
62122;BME280;48108;47.532;19.084;2023-03-21T13:38:49;100197.28;;;24.26;27.29
62122;BME280;48108;47.532;19.084;2023-03-21T13:41:52;100194.69;;;22.83;27.87
62122;BME280;48108;47.532;19.084;2023-03-21T13:44:59;100197.91;;;23.13;28.58
62122;BME280;48108;47.532;19.084;2023-03-21T13:48:04;100185.63;;;23.20;28.66
62122;BME280;48108;47.532;19.084;2023-03-21T13:51:08;100184.25;;;23.23;28.58
62122;BME280;48108;47.532;19.084;2023-03-21T13:57:35;100175.16;;;23.22;28.85
62122;BME280;48108;47.532;19.084;2023-03-21T14:00:40;100182.63;;;21.32;31.81
62122;BME280;48108;47.532;19.084;2023-03-21T14:03:44;100179.78;;;20.66;33.47
62122;BME280;48108;47.532;19.084;2023-03-21T14:06:55;100174.06;;;22.81;30.65
62122;BME280;48108;47.532;19.084;2023-03-21T14:10:03;100166.53;;;25.66;27.05
62122;BME280;48108;47.532;19.084;2023-03-21T14:13:10;100162.22;;;27.26;24.62
62122;BME280;48108;47.532;19.084;2023-03-21T14:16:19;100168.09;;;28.62;22.75
62122;BME280;48108;47.532;19.084;2023-03-21T14:19:30;100160.97;;;27.61;22.47
62122;BME280;48108;47.532;19.084;2023-03-21T14:22:34;100156.97;;;28.94;21.34
62122;BME280;48108;47.532;19.084;2023-03-21T14:25:37;100150.84;;;28.32;22.10
62122;BME280;48108;47.532;19.084;2023-03-21T14:28:51;100145.09;;;28.10;22.32
62122;BME280;48108;47.532;19.084;2023-03-21T14:31:55;100137.84;;;26.11;23.77
62122;BME280;48108;47.532;19.084;2023-03-21T14:35:00;100140.84;;;24.18;26.58
62122;BME280;48108;47.532;19.084;2023-03-21T14:38:04;100136.16;;;22.78;28.51
62122;BME280;48108;47.532;19.084;2023-03-21T14:41:24;100141.28;;;20.90;31.85
62122;BME280;48108;47.532;19.084;2023-03-21T14:44:47;100149.53;;;19.93;34.42
62122;BME280;48108;47.532;19.084;2023-03-21T14:48:04;100141.13;;;19.02;36.70
62122;BME280;48108;47.532;19.084;2023-03-21T14:51:09;100147.03;;;18.52;37.70
62122;BME280;48108;47.532;19.084;2023-03-21T14:54:15;100137.12;;;18.16;38.07
62122;BME280;48108;47.532;19.084;2023-03-21T14:57:23;100142.28;;;17.94;38.68
62122;BME280;48108;47.532;19.084;2023-03-21T15:00:29;100136.94;;;17.69;39.52
62122;BME280;48108;47.532;19.084;2023-03-21T15:03:33;100142.47;;;17.62;39.38
62122;BME280;48108;47.532;19.084;2023-03-21T15:06:51;100135.13;;;17.33;39.45
62122;BME280;48108;47.532;19.084;2023-03-21T15:09:57;100142.44;;;17.32;39.60
62122;BME280;48108;47.532;19.084;2023-03-21T15:13:15;100140.56;;;17.14;38.90
62122;BME280;48108;47.532;19.084;2023-03-21T15:16:20;100141.69;;;17.07;39.40
62122;BME280;48108;47.532;19.084;2023-03-21T15:19:41;100142.06;;;16.92;40.94
62122;BME280;48108;47.532;19.084;2023-03-21T15:22:51;100131.72;;;16.82;41.62
62122;BME280;48108;47.532;19.084;2023-03-21T15:25:56;100131.59;;;16.70;42.51
62122;BME280;48108;47.532;19.084;2023-03-21T15:29:00;100132.69;;;16.63;43.01
62122;BME280;48108;47.532;19.084;2023-03-21T15:32:06;100129.94;;;16.44;44.44
62122;BME280;48108;47.532;19.084;2023-03-21T15:35:16;100132.00;;;16.24;45.17
62122;BME280;48108;47.532;19.084;2023-03-21T15:38:42;100125.31;;;16.20;45.84
62122;BME280;48108;47.532;19.084;2023-03-21T15:42:02;100129.75;;;16.14;46.41
62122;BME280;48108;47.532;19.084;2023-03-21T15:45:25;100129.63;;;16.02;46.69
62122;BME280;48108;47.532;19.084;2023-03-21T15:48:33;100131.56;;;15.95;46.97
62122;BME280;48108;47.532;19.084;2023-03-21T15:51:36;100121.66;;;15.82;47.77
62122;BME280;48108;47.532;19.084;2023-03-21T15:54:48;100133.53;;;15.81;46.75
62122;BME280;48108;47.532;19.084;2023-03-21T15:58:09;100131.31;;;15.65;46.89
62122;BME280;48108;47.532;19.084;2023-03-21T16:01:19;100123.59;;;15.62;46.84
62122;BME280;48108;47.532;19.084;2023-03-21T16:04:24;100128.03;;;15.50;47.62
62122;BME280;48108;47.532;19.084;2023-03-21T16:07:28;100129.28;;;15.47;47.50
62122;BME280;48108;47.532;19.084;2023-03-21T16:10:36;100127.88;;;15.45;47.45
62122;BME280;48108;47.532;19.084;2023-03-21T16:13:39;100131.84;;;15.35;47.79
62122;BME280;48108;47.532;19.084;2023-03-21T16:16:43;100129.81;;;15.31;47.44
62122;BME280;48108;47.532;19.084;2023-03-21T16:19:47;100134.19;;;15.25;47.93
62122;BME280;48108;47.532;19.084;2023-03-21T16:22:50;100136.09;;;15.18;47.52
62122;BME280;48108;47.532;19.084;2023-03-21T16:25:53;100145.94;;;15.12;47.94
62122;BME280;48108;47.532;19.084;2023-03-21T16:29:00;100145.09;;;15.05;48.30
62122;BME280;48108;47.532;19.084;2023-03-21T16:32:03;100145.56;;;14.95;48.57
62122;BME280;48108;47.532;19.084;2023-03-21T16:35:08;100148.91;;;14.91;49.24
62122;BME280;48108;47.532;19.084;2023-03-21T16:38:12;100154.75;;;14.88;49.95
62122;BME280;48108;47.532;19.084;2023-03-21T16:41:15;100146.63;;;14.68;49.88
62122;BME280;48108;47.532;19.084;2023-03-21T16:44:19;100153.72;;;14.62;50.51
62122;BME280;48108;47.532;19.084;2023-03-21T16:47:22;100156.66;;;14.61;50.60
62122;BME280;48108;47.532;19.084;2023-03-21T16:50:30;100155.37;;;14.50;51.05
62122;BME280;48108;47.532;19.084;2023-03-21T16:53:33;100160.38;;;14.40;51.84
62122;BME280;48108;47.532;19.084;2023-03-21T16:56:38;100168.31;;;14.28;52.07
62122;BME280;48108;47.532;19.084;2023-03-21T17:29:15;100190.19;;;13.52;54.72
62122;BME280;48108;47.532;19.084;2023-03-21T17:32:18;100191.12;;;13.31;55.61
62122;BME280;48108;47.532;19.084;2023-03-21T17:35:22;100184.94;;;13.44;55.03
62122;BME280;48108;47.532;19.084;2023-03-21T17:38:26;100189.28;;;13.38;55.21
62122;BME280;48108;47.532;19.084;2023-03-21T17:41:28;100191.34;;;13.36;55.03
62122;BME280;48108;47.532;19.084;2023-03-21T17:44:31;100189.84;;;13.27;55.35
62122;BME280;48108;47.532;19.084;2023-03-21T17:47:34;100193.59;;;13.26;55.42
